createdAt,value
2023-04-16T00:00:50.471Z,9.49
2023-04-16T00:03:20.231Z,9.55
2023-04-16T00:05:48.346Z,9.64
2023-04-16T00:08:16.426Z,9.66
2023-04-16T00:10:44.528Z,9.70
2023-04-16T00:13:12.477Z,9.48
2023-04-16T00:15:41.586Z,9.49
2023-04-16T00:18:09.539Z,9.49
2023-04-16T00:20:38.884Z,9.62
2023-04-16T00:23:06.837Z,9.59
2023-04-16T00:25:34.763Z,9.48
2023-04-16T00:28:02.878Z,9.53
2023-04-16T00:30:30.883Z,9.55
2023-04-16T00:32:58.915Z,9.44
2023-04-16T00:35:27.083Z,9.47
2023-04-16T00:37:56.461Z,9.47
2023-04-16T00:40:24.757Z,9.34
2023-04-16T00:42:52.997Z,9.38
2023-04-16T00:45:21.259Z,9.26
2023-04-16T00:47:49.256Z,9.36
2023-04-16T00:50:17.588Z,9.39
2023-04-16T00:52:48.143Z,9.28
2023-04-16T00:55:18.913Z,9.34
2023-04-16T00:57:47.169Z,9.38
2023-04-16T01:00:16.181Z,9.44
2023-04-16T01:02:44.293Z,9.46
2023-04-16T01:05:12.371Z,9.41
2023-04-16T01:07:40.305Z,9.40
2023-04-16T01:10:09.520Z,9.35
2023-04-16T01:12:38.801Z,9.36
2023-04-16T01:15:08.746Z,9.33
2023-04-16T01:17:36.804Z,9.23
2023-04-16T01:20:05.369Z,9.34
2023-04-16T01:22:34.674Z,9.28
2023-04-16T01:25:02.696Z,9.36
2023-04-16T01:27:31.184Z,9.35
2023-04-16T01:29:59.213Z,9.40
2023-04-16T01:32:27.180Z,9.35
2023-04-16T01:34:55.172Z,9.35
2023-04-16T01:37:23.134Z,9.36
2023-04-16T01:39:52.577Z,9.33
2023-04-16T01:42:20.477Z,9.39
2023-04-16T01:44:48.884Z,9.22
2023-04-16T01:47:16.939Z,9.18
2023-04-16T01:49:45.639Z,9.18
2023-04-16T01:52:13.560Z,9.26
2023-04-16T01:54:41.497Z,9.23
2023-04-16T01:57:11.114Z,9.18
2023-04-16T01:59:39.066Z,9.24
2023-04-16T02:02:11.318Z,9.19
2023-04-16T02:04:39.964Z,9.25
2023-04-16T02:07:09.296Z,9.17
2023-04-16T02:09:38.821Z,9.10
2023-04-16T02:12:06.962Z,9.09
2023-04-16T02:14:36.228Z,9.13
2023-04-16T02:17:04.246Z,8.99
2023-04-16T02:19:32.188Z,9.01
2023-04-16T02:22:01.404Z,9.01
2023-04-16T02:24:29.534Z,9.01
2023-04-16T02:26:58.151Z,9.04
2023-04-16T02:29:26.123Z,8.90
2023-04-16T02:31:55.469Z,8.86
2023-04-16T02:34:23.462Z,8.92
2023-04-16T02:36:51.381Z,8.85
2023-04-16T02:39:19.928Z,8.81
2023-04-16T02:41:47.959Z,8.88
2023-04-16T02:44:15.923Z,8.93
2023-04-16T02:46:43.808Z,8.86
2023-04-16T02:49:13.085Z,8.84
2023-04-16T02:51:41.092Z,8.90
2023-04-16T02:54:09.099Z,8.80
2023-04-16T02:56:37.138Z,8.95
2023-04-16T02:59:05.154Z,8.81
2023-04-16T03:01:33.698Z,8.84
2023-04-16T03:04:01.855Z,8.78
2023-04-16T03:06:31.362Z,8.77
2023-04-16T03:08:59.692Z,8.77
2023-04-16T03:11:27.706Z,8.78
2023-04-16T03:13:55.592Z,8.74
2023-04-16T03:16:23.673Z,8.72
2023-04-16T03:18:51.727Z,8.65
2023-04-16T03:21:19.675Z,8.72
2023-04-16T03:23:49.125Z,8.76
2023-04-16T03:26:17.106Z,8.69
2023-04-16T03:28:45.077Z,8.69
2023-04-16T03:31:13.132Z,8.65
2023-04-16T03:33:41.220Z,8.62
2023-04-16T03:36:11.140Z,8.70
2023-04-16T03:38:39.084Z,8.66
2023-04-16T03:41:08.384Z,8.64
2023-04-16T03:43:36.371Z,8.66
2023-04-16T03:46:04.308Z,8.65
2023-04-16T03:48:32.323Z,8.75
2023-04-16T03:51:00.592Z,8.69
2023-04-16T03:53:28.511Z,8.57
2023-04-16T03:55:56.629Z,8.63
2023-04-16T03:58:26.051Z,8.66
2023-04-16T04:00:55.205Z,8.55
2023-04-16T04:03:23.358Z,8.61
2023-04-16T04:05:51.485Z,8.54
2023-04-16T04:08:19.448Z,8.52
2023-04-16T04:10:47.407Z,8.43
2023-04-16T04:13:15.438Z,8.47
2023-04-16T04:15:45.472Z,8.60
2023-04-16T04:18:13.371Z,8.53
2023-04-16T04:20:42.005Z,8.48
2023-04-16T04:23:09.970Z,8.55
2023-04-16T04:25:37.916Z,8.64
2023-04-16T04:28:06.260Z,8.60
2023-04-16T04:30:35.646Z,8.63
2023-04-16T04:33:05.190Z,8.58
2023-04-16T04:35:33.522Z,8.53
2023-04-16T04:38:02.696Z,8.52
2023-04-16T04:40:30.761Z,8.54
2023-04-16T04:42:58.687Z,8.60
2023-04-16T04:45:26.896Z,8.54
2023-04-16T04:47:55.210Z,8.69
2023-04-16T04:50:24.577Z,8.61
2023-04-16T04:52:52.535Z,8.58
2023-04-16T04:55:20.801Z,8.72
2023-04-16T04:57:49.715Z,8.70
2023-04-16T05:00:17.724Z,8.61
2023-04-16T05:02:45.901Z,8.68
2023-04-16T05:05:13.924Z,8.57
2023-04-16T05:07:43.239Z,8.47
2023-04-16T05:10:11.723Z,8.62
2023-04-16T05:12:39.980Z,8.49
2023-04-16T05:15:09.606Z,8.58
2023-04-16T05:17:37.668Z,8.57
2023-04-16T05:20:06.764Z,8.68
2023-04-16T05:22:34.695Z,8.69
2023-04-16T05:25:04.176Z,8.60
2023-04-16T05:27:32.200Z,8.68
2023-04-16T05:30:00.226Z,8.67
2023-04-16T05:32:28.165Z,8.76
2023-04-16T05:34:56.225Z,8.70
2023-04-16T05:37:24.266Z,8.70
2023-04-16T05:39:52.170Z,8.78
2023-04-16T05:42:21.530Z,8.69
2023-04-16T05:44:49.449Z,8.65
2023-04-16T05:47:17.509Z,8.72
2023-04-16T05:49:45.647Z,8.69
2023-04-16T05:52:13.705Z,8.62
2023-04-16T05:54:41.656Z,8.68
2023-04-16T05:57:09.546Z,8.60
2023-04-16T05:59:38.846Z,8.59
2023-04-16T06:02:07.802Z,8.74
2023-04-16T06:04:37.217Z,8.90
2023-04-16T06:07:05.138Z,8.83
2023-04-16T06:09:33.104Z,8.81
2023-04-16T06:12:01.279Z,8.71
2023-04-16T06:14:29.339Z,8.83
2023-04-16T06:16:58.598Z,8.87
2023-04-16T06:19:26.565Z,8.87
2023-04-16T06:21:55.398Z,8.86
2023-04-16T06:24:23.359Z,8.97
2023-04-16T06:26:51.325Z,8.96
2023-04-16T06:29:19.372Z,8.89
2023-04-16T06:31:47.506Z,9.01
2023-04-16T06:34:16.896Z,8.90
2023-04-16T06:36:44.940Z,8.75
2023-04-16T06:39:12.819Z,8.87
2023-04-16T06:41:41.334Z,8.76
2023-04-16T06:44:09.314Z,8.85
2023-04-16T06:46:37.336Z,8.94
2023-04-16T06:49:05.631Z,8.93
2023-04-16T06:51:35.071Z,8.97
2023-04-16T06:54:03.324Z,8.87
2023-04-16T06:56:32.100Z,9.04
2023-04-16T06:59:00.936Z,8.98
2023-04-16T07:01:31.112Z,8.94
2023-04-16T07:03:59.504Z,9.03
2023-04-16T07:06:28.115Z,8.98
2023-04-16T07:08:57.446Z,9.07
2023-04-16T07:11:25.888Z,8.92
2023-04-16T07:13:54.091Z,8.98
2023-04-16T07:16:22.075Z,9.05
2023-04-16T07:18:49.991Z,8.99
2023-04-16T07:21:17.999Z,8.98
2023-04-16T07:23:45.927Z,8.98
2023-04-16T07:26:15.423Z,9.06
2023-04-16T07:28:43.406Z,8.94
2023-04-16T07:31:11.340Z,9.29
2023-04-16T07:33:39.332Z,9.08
2023-04-16T07:36:07.859Z,9.15
2023-04-16T07:38:35.853Z,9.11
2023-04-16T07:41:03.941Z,9.14
2023-04-16T07:43:33.230Z,9.22
2023-04-16T07:46:01.264Z,9.23
2023-04-16T07:48:29.215Z,9.26
2023-04-16T07:50:57.263Z,9.21
2023-04-16T07:53:25.212Z,9.19
2023-04-16T07:55:53.066Z,9.27
2023-04-16T07:58:21.028Z,9.31
2023-04-16T08:00:51.081Z,9.29
2023-04-16T08:03:19.426Z,9.20
2023-04-16T08:05:47.620Z,9.31
2023-04-16T08:08:15.619Z,9.32
2023-04-16T08:10:43.682Z,9.19
2023-04-16T08:13:11.599Z,9.31
2023-04-16T08:15:39.687Z,9.29
2023-04-16T08:18:12.817Z,9.29
2023-04-16T08:20:40.908Z,9.26
2023-04-16T08:23:08.967Z,9.46
2023-04-16T08:25:37.104Z,9.64
2023-04-16T08:28:05.712Z,9.67
2023-04-16T08:30:33.792Z,9.54
2023-04-16T08:33:02.037Z,9.56
2023-04-16T08:35:31.444Z,9.61
2023-04-16T08:38:02.160Z,9.72
2023-04-16T08:40:31.189Z,9.58
2023-04-16T08:43:03.863Z,9.58
2023-04-16T08:45:36.829Z,9.57
2023-04-16T08:48:07.656Z,9.60
2023-04-16T08:50:37.488Z,9.72
2023-04-16T08:53:07.766Z,9.72
2023-04-16T08:55:40.257Z,9.72
2023-04-16T08:58:15.444Z,9.57
2023-04-16T09:00:46.019Z,9.77
2023-04-16T09:03:14.643Z,9.69
2023-04-16T09:05:45.868Z,9.65
2023-04-16T09:08:14.582Z,9.78
2023-04-16T09:10:42.862Z,9.62
2023-04-16T09:13:13.387Z,9.63
2023-04-16T09:15:42.591Z,9.60
2023-04-16T09:18:12.098Z,9.62
2023-04-16T09:20:40.848Z,9.85
2023-04-16T09:23:11.695Z,9.78
2023-04-16T09:25:40.095Z,9.95
2023-04-16T09:28:08.120Z,9.69
2023-04-16T09:30:37.107Z,9.82
2023-04-16T09:33:17.414Z,9.95
2023-04-16T09:35:49.704Z,9.91
2023-04-16T09:38:20.004Z,10.00
2023-04-16T09:40:48.407Z,9.96
2023-04-16T09:43:19.087Z,9.89
2023-04-16T09:45:52.967Z,9.89
2023-04-16T09:48:31.088Z,9.96
2023-04-16T09:50:59.754Z,9.77
2023-04-16T09:53:31.612Z,9.80
2023-04-16T09:56:01.162Z,10.05
2023-04-16T09:58:30.028Z,9.99
2023-04-16T10:01:02.659Z,9.97
2023-04-16T10:03:32.752Z,9.92
2023-04-16T10:06:03.012Z,9.91
2023-04-16T10:08:32.246Z,9.91
2023-04-16T10:11:00.945Z,10.10
2023-04-16T10:13:30.986Z,10.10
2023-04-16T10:15:59.086Z,10.37
2023-04-16T10:18:27.988Z,10.41
2023-04-16T10:20:56.921Z,10.64
2023-04-16T10:23:25.040Z,10.76
2023-04-16T10:25:57.637Z,10.88
2023-04-16T10:28:27.021Z,11.01
2023-04-16T10:30:58.610Z,11.32
2023-04-16T10:33:30.301Z,11.38
2023-04-16T10:36:13.373Z,11.36
2023-04-16T10:38:43.090Z,11.26
2023-04-16T10:41:12.256Z,11.04
2023-04-16T10:43:42.582Z,10.76
2023-04-16T10:46:22.616Z,10.89
2023-04-16T10:48:57.490Z,10.69
2023-04-16T10:51:29.461Z,10.75
2023-04-16T10:53:59.628Z,11.09
2023-04-16T10:56:30.432Z,10.93
2023-04-16T10:58:58.501Z,11.01
2023-04-16T11:01:34.951Z,11.48
2023-04-16T11:04:31.122Z,11.84
2023-04-16T11:07:09.193Z,11.97
2023-04-16T11:09:59.593Z,11.89
2023-04-16T11:12:37.549Z,11.74
2023-04-16T11:15:11.608Z,11.46
2023-04-16T11:17:41.636Z,11.39
2023-04-16T11:20:19.542Z,11.31
2023-04-16T11:22:49.157Z,11.22
2023-04-16T11:25:21.914Z,11.05
2023-04-16T11:27:52.212Z,11.04
2023-04-16T11:30:30.419Z,11.00
2023-04-16T11:32:58.779Z,11.15
2023-04-16T11:35:27.200Z,11.25
2023-04-16T11:37:58.261Z,11.22
2023-04-16T11:40:30.386Z,11.01
2023-04-16T11:43:04.206Z,11.03
2023-04-16T11:45:32.358Z,10.94
2023-04-16T11:48:00.858Z,10.96
2023-04-16T11:50:30.064Z,10.98
2023-04-16T11:53:05.462Z,10.90
2023-04-16T11:55:33.778Z,10.81
2023-04-16T11:58:16.348Z,10.88
2023-04-16T12:00:45.275Z,10.72
2023-04-16T12:03:13.956Z,10.69
2023-04-16T12:05:42.567Z,10.63
2023-04-16T12:08:13.585Z,10.72
2023-04-16T12:10:59.686Z,10.89
2023-04-16T12:13:43.750Z,10.61
2023-04-16T12:16:21.791Z,10.66
2023-04-16T12:19:06.155Z,10.79
2023-04-16T12:21:42.515Z,10.93
2023-04-16T12:24:14.115Z,11.11
2023-04-16T12:26:44.701Z,11.05
2023-04-16T12:29:22.858Z,11.04
2023-04-16T12:31:53.501Z,10.95
2023-04-16T12:34:28.949Z,10.82
2023-04-16T12:37:11.301Z,10.71
2023-04-16T12:39:39.309Z,10.72
2023-04-16T12:42:11.174Z,10.56
2023-04-16T12:44:40.675Z,10.60
2023-04-16T12:47:08.805Z,10.48
2023-04-16T12:49:38.317Z,10.61
2023-04-16T12:52:06.623Z,10.60
2023-04-16T12:54:38.221Z,10.57
2023-04-16T12:57:06.246Z,10.61
2023-04-16T12:59:34.362Z,10.43
2023-04-16T13:02:12.038Z,10.47
2023-04-16T13:04:40.420Z,10.66
2023-04-16T13:07:14.816Z,10.55
2023-04-16T13:09:50.175Z,10.59
2023-04-16T13:12:18.098Z,10.73
2023-04-16T13:14:46.345Z,10.90
2023-04-16T13:17:15.676Z,11.00
2023-04-16T13:19:44.327Z,11.09
2023-04-16T13:22:15.543Z,11.14
2023-04-16T13:24:43.809Z,11.02
2023-04-16T13:27:13.387Z,11.51
2023-04-16T13:29:41.494Z,11.54
2023-04-16T13:32:13.885Z,11.74
2023-04-16T13:34:44.030Z,11.83
2023-04-16T13:37:15.247Z,11.77
2023-04-16T13:39:43.427Z,11.74
2023-04-16T13:42:11.352Z,11.57
2023-04-16T13:44:48.743Z,11.59
2023-04-16T13:47:19.039Z,11.58
2023-04-16T13:49:48.624Z,11.63
2023-04-16T13:52:16.780Z,11.46
2023-04-16T13:54:44.758Z,11.48
2023-04-16T13:57:12.919Z,11.74
2023-04-16T13:59:40.957Z,11.65
2023-04-16T14:02:10.608Z,11.68
2023-04-16T14:04:38.587Z,11.53
2023-04-16T14:07:10.564Z,11.61
2023-04-16T14:09:38.632Z,11.57
2023-04-16T14:12:07.719Z,11.55
2023-04-16T14:14:36.347Z,11.69
2023-04-16T14:17:04.394Z,11.60
2023-04-16T14:19:32.441Z,11.79
2023-04-16T14:22:00.530Z,11.67
2023-04-16T14:24:30.760Z,11.64
2023-04-16T14:26:58.796Z,11.62
2023-04-16T14:29:27.040Z,11.54
2023-04-16T14:31:55.278Z,11.70
2023-04-16T14:34:23.542Z,11.87
2023-04-16T14:36:51.937Z,11.79
2023-04-16T14:39:20.584Z,11.68
2023-04-16T14:41:49.908Z,11.81
2023-04-16T14:44:17.991Z,11.56
2023-04-16T14:46:46.349Z,11.80
2023-04-16T14:49:14.759Z,11.80
2023-04-16T14:51:50.192Z,11.71
2023-04-16T14:54:22.362Z,11.68
2023-04-16T14:56:52.421Z,11.84
2023-04-16T14:59:23.609Z,11.56
2023-04-16T15:01:52.333Z,11.54
2023-04-16T15:04:20.573Z,11.42
2023-04-16T15:06:49.923Z,11.44
2023-04-16T15:09:18.042Z,11.77
2023-04-16T15:11:46.137Z,11.81
2023-04-16T15:14:16.737Z,11.81
2023-04-16T15:16:46.549Z,11.74
2023-04-16T15:19:14.552Z,11.95
2023-04-16T15:21:42.667Z,11.96
2023-04-16T15:24:11.030Z,11.85
2023-04-16T15:26:39.399Z,11.76
2023-04-16T15:29:07.469Z,11.36
2023-04-16T15:31:36.848Z,11.54
2023-04-16T15:34:04.922Z,11.61
2023-04-16T15:36:38.496Z,11.62
2023-04-16T15:39:15.381Z,11.37
2023-04-16T15:41:57.534Z,11.40
2023-04-16T15:44:29.158Z,11.49
2023-04-16T15:46:58.666Z,11.45
2023-04-16T15:49:26.983Z,11.36
2023-04-16T15:51:55.568Z,11.52
2023-04-16T15:54:23.597Z,11.45
2023-04-16T15:56:52.565Z,11.45
2023-04-16T15:59:20.583Z,11.47
2023-04-16T16:01:48.567Z,11.36
2023-04-16T16:04:18.347Z,11.35
2023-04-16T16:06:46.631Z,11.26
2023-04-16T16:09:15.216Z,11.16
2023-04-16T16:11:45.956Z,10.97
2023-04-16T16:14:16.303Z,10.63
2023-04-16T16:16:46.318Z,10.36
2023-04-16T16:19:14.777Z,10.39
2023-04-16T16:21:45.647Z,10.25
2023-04-16T16:24:13.971Z,10.24
2023-04-16T16:26:42.399Z,10.20
2023-04-16T16:29:11.149Z,10.12
2023-04-16T16:31:39.889Z,10.05
2023-04-16T16:51:46.144Z,9.78
2023-04-16T16:54:16.764Z,9.72
2023-04-16T16:56:47.494Z,9.73
2023-04-16T16:59:16.847Z,9.64
2023-04-16T17:01:51.233Z,9.68
2023-04-16T17:04:21.849Z,9.66
2023-04-16T17:06:53.368Z,9.65
2023-04-16T17:09:23.532Z,9.71
2023-04-16T17:11:54.479Z,9.69
2023-04-16T17:14:22.576Z,9.73
2023-04-16T17:16:52.234Z,9.74
2023-04-16T17:19:22.726Z,9.65
2023-04-16T17:21:54.554Z,9.65
2023-04-16T17:24:24.612Z,9.65
2023-04-16T17:26:56.443Z,9.66
2023-04-16T17:29:27.657Z,9.58
2023-04-16T17:31:59.204Z,9.54
2023-04-16T17:34:30.381Z,9.56
2023-04-16T17:37:02.016Z,9.53
2023-04-16T17:39:31.934Z,9.52
2023-04-16T17:42:04.823Z,9.48
2023-04-16T17:44:32.884Z,9.52
2023-04-16T17:47:01.135Z,9.56
2023-04-16T17:49:29.243Z,9.51
2023-04-16T17:51:57.415Z,9.38
2023-04-16T17:54:41.400Z,9.38
2023-04-16T17:57:09.824Z,9.38
2023-04-16T17:59:37.947Z,9.40
2023-04-16T18:02:06.125Z,9.39
2023-04-16T18:04:34.804Z,9.44
2023-04-16T18:07:03.314Z,9.36
2023-04-16T18:09:31.725Z,9.39
2023-04-16T18:12:03.348Z,9.44
2023-04-16T18:14:31.452Z,9.41
2023-04-16T18:17:03.640Z,9.38
2023-04-16T18:19:33.084Z,9.35
2023-04-16T18:22:01.397Z,9.34
2023-04-16T18:24:37.942Z,9.38
2023-04-16T18:27:07.657Z,9.22
2023-04-16T18:29:35.936Z,9.19
2023-04-16T18:32:12.334Z,9.15
2023-04-16T18:34:41.164Z,9.10
2023-04-16T18:37:09.330Z,9.08
2023-04-16T18:39:40.523Z,9.08
2023-04-16T18:42:12.586Z,9.12
2023-04-16T18:44:42.780Z,9.15
2023-04-16T18:47:13.345Z,9.08
2023-04-16T18:49:42.530Z,9.06
2023-04-16T18:52:12.193Z,9.05
2023-04-16T18:54:42.349Z,9.06
2023-04-16T18:57:14.007Z,9.02
2023-04-16T18:59:43.810Z,9.16
2023-04-16T19:02:13.392Z,8.98
2023-04-16T19:04:43.793Z,9.11
2023-04-16T19:07:23.011Z,8.95
2023-04-16T19:09:52.325Z,9.05
2023-04-16T19:12:25.530Z,9.02
2023-04-16T19:14:54.930Z,9.04
2023-04-16T19:17:26.676Z,9.07
2023-04-16T19:20:11.672Z,9.08
2023-04-16T19:22:41.138Z,8.93
2023-04-16T19:25:11.777Z,9.09
2023-04-16T19:27:42.549Z,8.98
2023-04-16T19:30:12.832Z,8.95
2023-04-16T19:32:45.127Z,8.99
2023-04-16T19:35:14.909Z,8.99
2023-04-16T19:37:44.085Z,8.81
2023-04-16T19:40:13.802Z,8.80
2023-04-16T19:42:45.672Z,8.87
2023-04-16T19:45:17.886Z,8.82
2023-04-16T19:47:49.025Z,8.85
2023-04-16T19:50:18.739Z,8.72
2023-04-16T19:52:46.969Z,8.68
2023-04-16T19:55:15.039Z,8.67
2023-04-16T19:57:49.061Z,8.61
2023-04-16T20:00:17.998Z,8.61
2023-04-16T20:02:46.237Z,8.53
2023-04-16T20:05:14.286Z,8.56
2023-04-16T20:07:43.530Z,8.52
2023-04-16T20:10:22.505Z,8.52
2023-04-16T20:12:53.976Z,8.56
2023-04-16T20:15:23.197Z,8.51
2023-04-16T20:17:54.038Z,8.60
2023-04-16T20:20:23.900Z,8.42
2023-04-16T20:22:59.900Z,8.47
2023-04-16T20:25:29.613Z,8.40
2023-04-16T20:28:00.705Z,8.50
2023-04-16T20:30:31.204Z,8.45
2023-04-16T20:33:04.430Z,8.40
2023-04-16T20:35:33.674Z,8.34
2023-04-16T20:38:04.253Z,8.31
2023-04-16T20:40:33.513Z,8.21
2023-04-16T20:43:41.240Z,8.23
2023-04-16T20:46:13.749Z,8.26
2023-04-16T20:48:41.962Z,8.18
2023-04-16T20:51:13.399Z,8.22
2023-04-16T20:53:41.591Z,8.22
2023-04-16T20:56:12.090Z,8.26
2023-04-16T20:58:42.860Z,8.15
2023-04-16T21:01:11.182Z,8.06
2023-04-16T21:03:41.849Z,8.07
2023-04-16T21:06:12.672Z,8.00
2023-04-16T21:08:41.169Z,8.00
2023-04-16T21:11:09.245Z,7.92
2023-04-16T21:13:37.278Z,7.96
2023-04-16T21:16:08.210Z,7.96
2023-04-16T21:18:36.642Z,7.98
2023-04-16T21:21:05.100Z,7.91
2023-04-16T21:23:33.160Z,7.89
2023-04-16T21:26:01.287Z,7.96
2023-04-16T21:28:29.427Z,7.93
2023-04-16T21:30:57.476Z,7.96
2023-04-16T21:33:26.891Z,7.82
2023-04-16T21:35:55.099Z,7.93
2023-04-16T21:38:23.558Z,7.85
2023-04-16T21:40:53.945Z,7.77
2023-04-16T21:43:22.125Z,7.81
2023-04-16T21:45:52.887Z,7.78
2023-04-16T21:48:21.161Z,7.76
2023-04-16T21:50:57.995Z,7.70
2023-04-16T21:53:27.927Z,7.67
2023-04-16T21:55:56.128Z,7.64
2023-04-16T21:58:25.627Z,7.64
2023-04-16T22:00:53.779Z,7.61
2023-04-16T22:03:26.201Z,7.56
2023-04-16T22:06:00.832Z,7.52
2023-04-16T22:08:29.520Z,7.63
2023-04-16T22:10:59.348Z,7.60
2023-04-16T22:13:27.528Z,7.57
2023-04-16T22:15:57.702Z,7.56
2023-04-16T22:18:26.469Z,7.69
2023-04-16T22:20:54.971Z,7.66
2023-04-16T22:23:25.307Z,7.69
2023-04-16T22:25:56.318Z,7.77
2023-04-16T22:28:24.647Z,7.61
2023-04-16T22:30:52.784Z,7.59
2023-04-16T22:33:20.943Z,7.68
2023-04-16T22:35:48.942Z,7.61
2023-04-16T22:38:17.485Z,7.57
2023-04-16T22:40:48.874Z,7.58
2023-04-16T22:43:17.674Z,7.49
2023-04-16T22:45:47.203Z,7.60
2023-04-16T22:48:15.519Z,7.64
2023-04-16T22:50:48.384Z,7.64
2023-04-16T22:53:16.632Z,7.56
2023-04-16T22:55:46.177Z,7.59
2023-04-16T22:58:14.160Z,7.46
2023-04-16T23:00:42.221Z,7.49
2023-04-16T23:03:10.557Z,7.42
2023-04-16T23:05:38.482Z,7.48
2023-04-16T23:08:09.100Z,7.48
2023-04-16T23:10:37.271Z,7.36
2023-04-16T23:13:06.671Z,7.30
2023-04-16T23:15:35.052Z,7.34
2023-04-16T23:18:03.266Z,7.32
2023-04-16T23:20:31.329Z,7.29
2023-04-16T23:22:59.376Z,7.32
2023-04-16T23:25:27.456Z,7.35
2023-04-16T23:27:56.630Z,7.33
2023-04-16T23:30:26.142Z,7.38
2023-04-16T23:32:54.181Z,7.36
2023-04-16T23:35:23.032Z,7.30
2023-04-16T23:37:51.494Z,7.28
2023-04-16T23:40:19.789Z,7.26
2023-04-16T23:42:47.970Z,7.29
2023-04-16T23:45:16.578Z,7.31
2023-04-16T23:47:46.107Z,7.34
2023-04-16T23:50:14.570Z,7.21
2023-04-16T23:52:42.745Z,7.36
2023-04-16T23:55:11.050Z,7.46
2023-04-16T23:57:39.155Z,7.39
